Terminal Aerodrome Forecast
Issued by NWS Wakefield, VA

Home | Current Version | Previous Version | Text Only | Print | Product List | Glossary On
Versions: 1 2 3 4 5 6 7 8 9 10 11 12 13 14 15 16 17 18 19
000
FTUS41 KAKQ 221000 AAB
TAFECG
TAF AMD
KECG 221024Z 2210/2306 06003KT P6SM SCT007 SCT030 BKN060
      TEMPO 2211/2212 4SM BR BKN025
     FM221400 08007KT P6SM BKN060
     FM222000 12009KT P6SM BKN035=

USA.gov is the U.S. government's official web portal to all federal, state and local government web resources and services.